Time;durP1;ratioP1;P1;durP2;ratioP2;P2;SDS_P1;SDS_P2;PMS_P1;PMS_P2;Temp;Humidity;BMP_temperature;BMP_pressure;BME280_temperature;BME280_humidity;BME280_pressure;Samples;Min_cycle;Max_cycle;Signal;HPM_P1;HPM_P2
2022/09/08 00:03:26;;;;;;;36.40;30.00;;;;;;;15.54;100.00;100976.41;10428969;28;20052;-79
2022/09/08 00:08:27;;;;;;;38.58;29.40;;;;;;;15.51;100.00;100968.66;10379160;28;20037;-80
2022/09/08 00:13:27;;;;;;;41.08;30.77;;;;;;;15.60;100.00;100984.69;10398836;28;20048;-80
2022/09/08 00:18:28;;;;;;;45.40;31.80;;;;;;;15.66;100.00;100983.56;10383938;28;20037;-79
2022/09/08 00:23:29;;;;;;;41.67;33.38;;;;;;;15.63;100.00;100982.19;10401962;28;20114;-79
2022/09/08 00:28:30;;;;;;;39.88;32.67;;;;;;;15.66;100.00;100970.50;10428266;28;20052;-78
2022/09/08 00:33:30;;;;;;;46.38;34.65;;;;;;;15.76;100.00;100969.66;10439428;28;20048;-80
2022/09/08 00:38:31;;;;;;;45.22;35.75;;;;;;;15.72;100.00;100968.56;10392703;28;20042;-80
2022/09/08 00:43:37;;;;;;;48.88;36.25;;;;;;;15.78;100.00;100967.41;10370968;28;20129;-79
2022/09/08 00:48:52;;;;;;;50.50;37.90;;;;;;;15.71;100.00;100950.25;10342645;28;20029;-79
2022/09/08 00:53:54;;;;;;;43.10;34.67;;;;;;;15.68;100.00;100937.75;10328686;28;20343;-79
2022/09/08 00:58:54;;;;;;;49.30;38.05;;;;;;;15.71;100.00;100923.31;10353711;28;20044;-79
2022/09/08 01:03:55;;;;;;;51.45;38.85;;;;;;;15.71;100.00;100923.31;10362078;28;20049;-80
2022/09/08 01:14:44;;;;;;;53.70;39.10;;;;;;;15.63;100.00;100928.66;10387169;28;20045;-80
2022/09/08 01:19:47;;;;;;;53.97;40.00;;;;;;;15.52;100.00;100909.28;10444025;28;20057;-80
2022/09/08 01:25:14;;;;;;;50.63;38.83;;;;;;;15.56;100.00;100919.78;10390196;28;20030;-79
2022/09/08 01:30:15;;;;;;;49.78;40.00;;;;;;;15.39;100.00;100896.03;10430900;28;20037;-80
2022/09/08 01:35:32;;;;;;;56.85;41.08;;;;;;;15.42;100.00;100903.78;10416053;28;20060;-80
2022/09/08 01:40:32;;;;;;;53.75;40.03;;;;;;;15.41;100.00;100891.03;10379644;28;20060;-81
2022/09/08 01:45:37;;;;;;;54.28;40.17;;;;;;;15.49;100.00;100882.09;10363965;28;20041;-80
2022/09/08 01:50:37;;;;;;;51.65;40.03;;;;;;;15.50;100.00;100889.31;10341393;28;20128;-81
2022/09/08 01:55:38;;;;;;;56.72;42.95;;;;;;;15.51;100.00;100885.41;10393366;28;20037;-80
2022/09/08 02:00:40;;;;;;;59.78;42.47;;;;;;;15.47;100.00;100869.63;10363648;28;20041;-80
2022/09/08 02:05:41;;;;;;;54.15;40.92;;;;;;;15.47;100.00;100878.78;10395768;28;20040;-79
2022/09/08 02:10:42;;;;;;;61.97;43.63;;;;;;;15.38;100.00;100861.09;10363878;28;20044;-81
2022/09/08 02:15:42;;;;;;;64.18;44.85;;;;;;;15.46;100.00;100868.81;10379701;28;20030;-80
2022/09/08 02:20:43;;;;;;;59.35;43.58;;;;;;;15.52;100.00;100870.44;10344923;28;20042;-81
2022/09/08 02:25:43;;;;;;;65.43;46.70;;;;;;;15.52;100.00;100867.66;10339197;28;20125;-80
2022/09/08 02:30:44;;;;;;;60.20;43.75;;;;;;;15.69;100.00;100875.59;10371196;28;20034;-80
2022/09/08 02:35:44;;;;;;;60.28;44.30;;;;;;;15.68;100.00;100851.72;10336439;28;20038;-79
2022/09/08 02:40:45;;;;;;;62.85;46.00;;;;;;;15.76;100.00;100858.63;10371132;28;20092;-79
2022/09/08 02:45:46;;;;;;;61.03;43.88;;;;;;;15.86;100.00;100857.72;10354147;28;20085;-80
2022/09/08 02:50:46;;;;;;;62.67;45.35;;;;;;;15.88;100.00;100870.19;10368653;28;20525;-80
2022/09/08 02:55:47;;;;;;;61.50;44.03;;;;;;;15.87;100.00;100849.09;10353595;28;20525;-76
2022/09/08 03:00:48;;;;;;;61.35;44.10;;;;;;;15.91;100.00;100833.50;10346143;28;20030;-80
2022/09/08 03:05:49;;;;;;;67.13;47.10;;;;;;;15.88;100.00;100839.66;10337603;28;20034;-81
2022/09/08 03:10:49;;;;;;;69.15;46.45;;;;;;;15.91;100.00;100830.72;10392556;28;20029;-79
2022/09/08 03:15:50;;;;;;;67.45;47.45;;;;;;;15.92;100.00;100829.63;10377930;28;20068;-80
2022/09/08 03:21:02;;;;;;;70.07;47.38;;;;;;;15.88;100.00;100817.44;10353371;28;20038;-79
2022/09/08 03:26:04;;;;;;;65.57;45.55;;;;;;;15.85;100.00;100806.91;10376103;28;20034;-79
2022/09/08 03:31:12;;;;;;;66.88;47.05;;;;;;;15.92;100.00;100798.25;10376808;28;20090;-80
2022/09/08 03:36:14;;;;;;;69.47;49.95;;;;;;;15.87;100.00;100782.44;10412264;28;20036;-79
2022/09/08 03:41:15;;;;;;;64.40;47.75;;;;;;;15.95;100.00;100803.22;10378491;28;20440;-81
2022/09/08 03:46:16;;;;;;;65.50;47.63;;;;;;;15.88;100.00;100781.34;10408548;28;20120;-80
2022/09/08 03:51:24;;;;;;;66.97;47.05;;;;;;;15.90;100.00;100781.88;10392513;28;20034;-79
2022/09/08 03:56:24;;;;;;;68.05;48.60;;;;;;;16.03;100.00;100804.53;10392535;28;20429;-80
2022/09/08 04:01:25;;;;;;;71.15;50.30;;;;;;;15.79;100.00;100763.66;10410263;28;20409;-79
2022/09/08 04:06:25;;;;;;;68.03;48.90;;;;;;;15.98;100.00;100785.13;10419423;28;20048;-79
2022/09/08 04:11:26;;;;;;;70.97;49.40;;;;;;;15.99;100.00;100775.69;10384160;28;20038;-78
2022/09/08 04:16:27;;;;;;;74.90;50.78;;;;;;;16.05;100.00;100788.41;10367317;28;20480;-79
2022/09/08 04:21:27;;;;;;;65.93;48.05;;;;;;;15.96;100.00;100767.94;10383275;28;20038;-76
2022/09/08 04:26:28;;;;;;;69.70;47.33;;;;;;;16.03;100.00;100765.66;10367417;28;20039;-79
2022/09/08 04:31:28;;;;;;;71.85;50.30;;;;;;;16.06;100.00;100778.94;10367547;28;20341;-79
2022/09/08 04:36:29;;;;;;;67.45;49.20;;;;;;;16.06;100.00;100760.34;10453219;28;20061;-79
2022/09/08 04:41:30;;;;;;;69.35;48.33;;;;;;;16.03;100.00;100757.31;10424092;28;20090;-78
2022/09/08 04:46:32;;;;;;;71.82;49.15;;;;;;;16.06;100.00;100756.72;10439567;28;20065;-78
2022/09/08 04:51:33;;;;;;;71.75;49.88;;;;;;;16.07;100.00;100750.06;10423976;28;20044;-78
2022/09/08 04:56:33;;;;;;;69.20;49.85;;;;;;;15.97;100.00;100716.84;10381710;28;20132;-80
2022/09/08 05:01:37;;;;;;;72.60;50.40;;;;;;;16.00;100.00;100713.47;10409915;28;20048;-74
2022/09/08 05:06:38;;;;;;;71.10;50.00;;;;;;;16.04;100.00;100732.06;10423176;28;20039;-79
2022/09/08 05:11:38;;;;;;;73.22;51.10;;;;;;;15.91;100.00;100716.06;10419156;28;20660;-76
2022/09/08 05:16:39;;;;;;;74.05;50.25;;;;;;;15.93;100.00;100708.28;10364576;28;20037;-79
2022/09/08 05:21:39;;;;;;;81.18;52.95;;;;;;;15.89;100.00;100708.03;10398235;28;20093;-80
2022/09/08 05:26:40;;;;;;;79.25;53.70;;;;;;;15.79;100.00;100688.72;10413728;28;20045;-80
2022/09/08 05:31:40;;;;;;;76.60;52.92;;;;;;;15.89;100.00;100685.81;10378086;28;20421;-79
2022/09/08 05:36:41;;;;;;;74.20;52.13;;;;;;;15.87;100.00;100671.41;10381379;28;20037;-79
2022/09/08 05:41:41;;;;;;;75.85;53.53;;;;;;;15.99;100.00;100672.97;10381322;28;20036;-80
2022/09/08 05:46:43;;;;;;;79.90;54.33;;;;;;;15.94;100.00;100652.47;10377457;28;20051;-79
2022/09/08 05:51:43;;;;;;;78.78;54.17;;;;;;;16.10;100.00;100685.59;10437235;28;20044;-79
2022/09/08 05:56:44;;;;;;;77.13;54.35;;;;;;;16.19;100.00;100686.59;10453936;28;20029;-79
2022/09/08 06:01:44;;;;;;;78.70;55.33;;;;;;;16.24;100.00;100664.31;10364130;28;20236;-80
2022/09/08 06:06:46;;;;;;;71.85;53.28;;;;;;;16.32;100.00;100655.31;10396044;28;20045;-79
2022/09/08 06:11:47;;;;;;;77.93;52.15;;;;;;;16.40;100.00;100650.22;10396131;28;20502;-79
2022/09/08 06:16:47;;;;;;;73.13;51.08;;;;;;;16.49;100.00;100651.19;10412556;28;20468;-79
2022/09/08 06:21:48;;;;;;;72.75;50.95;;;;;;;16.52;100.00;100651.44;10420323;28;21106;-79
2022/09/08 06:26:52;;;;;;;71.95;52.30;;;;;;;16.59;100.00;100656.59;10391250;28;20029;-79
2022/09/08 06:31:57;;;;;;;68.97;51.95;;;;;;;16.63;100.00;100656.84;10395811;28;20083;-79
2022/09/08 06:36:59;;;;;;;71.10;51.30;;;;;;;16.68;100.00;100652.03;10340852;28;20030;-79
2022/09/08 06:42:24;;;;;;;65.07;49.58;;;;;;;16.69;100.00;100652.88;10373917;28;20057;-80
2022/09/08 06:47:28;;;;;;;67.65;48.95;;;;;;;16.79;100.00;100663.00;10393726;28;20119;-79
2022/09/08 06:52:48;;;;;;;64.65;48.63;;;;;;;16.73;100.00;100654.72;10377334;28;20038;-78
2022/09/08 06:58:09;;;;;;;67.85;50.83;;;;;;;16.83;100.00;100678.00;10366907;28;20045;-78
2022/09/08 07:03:23;;;;;;;64.60;48.55;;;;;;;16.78;100.00;100740.00;10355209;28;20034;-79
2022/09/08 07:08:36;;;;;;;70.72;52.20;;;;;;;16.70;100.00;100735.97;10410706;28;20056;-80
2022/09/08 07:13:48;;;;;;;74.53;54.10;;;;;;;16.68;100.00;100746.56;10417153;28;20049;-79
2022/09/08 07:18:54;;;;;;;85.47;56.88;;;;;;;16.64;100.00;100739.09;10452018;28;20365;-80
2022/09/08 07:23:55;;;;;;;89.30;58.13;;;;;;;16.63;100.00;100731.88;10419398;28;20106;-79
2022/09/08 07:28:58;;;;;;;82.82;57.85;;;;;;;16.69;100.00;100752.94;10400735;28;20045;-77
2022/09/08 07:34:04;;;;;;;87.05;58.22;;;;;;;16.62;100.00;100736.63;10394367;28;20040;-78
2022/09/08 07:39:26;;;;;;;79.83;56.53;;;;;;;16.67;100.00;100735.72;10406631;28;20033;-79
2022/09/08 07:44:26;;;;;;;81.07;56.78;;;;;;;16.71;100.00;100734.81;10421742;28;20057;-76
2022/09/08 07:49:36;;;;;;;82.45;55.78;;;;;;;16.80;100.00;100721.06;10413802;28;20140;-76
2022/09/08 07:54:42;;;;;;;76.68;55.70;;;;;;;17.04;100.00;100736.91;10418161;28;20048;-76
2022/09/08 08:00:08;;;;;;;79.10;55.30;;;;;;;17.09;100.00;100726.50;10419872;28;20060;-77
2022/09/08 08:05:23;;;;;;;76.72;54.63;;;;;;;17.23;100.00;100722.97;10444551;28;20041;-77
2022/09/08 08:10:26;;;;;;;78.32;52.63;;;;;;;17.29;100.00;100727.31;10428865;28;20460;-77
2022/09/08 08:15:42;;;;;;;73.40;53.33;;;;;;;17.26;100.00;100733.47;10396846;28;20052;-76
2022/09/08 08:20:51;;;;;;;80.00;50.93;;;;;;;17.24;100.00;100703.22;10366500;28;20489;-77
2022/09/08 08:26:12;;;;;;;69.38;50.08;;;;;;;17.39;100.00;100721.59;10384051;28;20268;-76
2022/09/08 08:31:24;;;;;;;71.88;52.63;;;;;;;17.43;100.00;100719.03;10401833;28;20103;-77
2022/09/08 08:36:25;;;;;;;67.93;48.13;;;;;;;17.49;100.00;100710.28;10436943;28;20041;-77
2022/09/08 08:41:40;;;;;;;66.22;47.10;;;;;;;17.63;100.00;100720.63;10407412;28;20099;-78
2022/09/08 08:47:02;;;;;;;59.85;43.97;;;;;;;17.85;100.00;100718.00;10385567;28;20588;-78
2022/09/08 08:52:11;;;;;;;62.15;45.88;;;;;;;18.07;100.00;100708.16;10435209;28;20041;-77
2022/09/08 08:57:29;;;;;;;55.22;41.38;;;;;;;18.38;100.00;100702.78;10403214;28;20129;-77
2022/09/08 09:02:50;;;;;;;52.95;38.53;;;;;;;18.46;100.00;100715.97;10398547;28;20029;-77
2022/09/08 09:08:19;;;;;;;45.72;36.45;;;;;;;18.39;100.00;100725.88;10394368;28;20072;-78
2022/09/08 09:13:49;;;;;;;46.13;36.03;;;;;;;18.23;100.00;100731.78;10379777;28;20041;-77
2022/09/08 09:19:08;;;;;;;44.50;36.03;;;;;;;18.26;100.00;100733.94;10392446;28;20029;-76
2022/09/08 09:24:31;;;;;;;43.35;34.88;;;;;;;18.31;100.00;100717.13;10377289;28;20104;-76
2022/09/08 09:29:36;;;;;;;43.58;34.40;;;;;;;18.63;100.00;100720.91;10417341;28;20045;-77
2022/09/08 09:35:14;;;;;;;42.75;34.03;;;;;;;18.59;100.00;100711.50;10371656;28;20528;-76
2022/09/08 09:40:42;;;;;;;38.85;32.42;;;;;;;18.43;100.00;100693.47;10399073;28;20132;-76
2022/09/08 09:46:04;;;;;;;36.92;31.27;;;;;;;18.31;100.00;100702.34;10415888;28;20499;-76
2022/09/08 09:51:14;;;;;;;44.22;33.47;;;;;;;18.29;100.00;100719.41;10371612;28;20049;-77
2022/09/08 09:56:33;;;;;;;37.13;30.75;;;;;;;18.34;100.00;100736.00;10397381;28;20037;-77
2022/09/08 10:01:57;;;;;;;37.65;30.90;;;;;;;18.38;100.00;100741.78;10358073;28;20065;-77
2022/09/08 10:07:22;;;;;;;33.25;28.75;;;;;;;18.33;100.00;100744.66;10413284;28;20042;-78
2022/09/08 10:12:53;;;;;;;32.78;28.60;;;;;;;18.33;100.00;100742.72;10397856;28;20083;-77
2022/09/08 10:18:25;;;;;;;36.33;29.38;;;;;;;18.32;100.00;100738.28;10454362;28;20437;-77
2022/09/08 10:24:03;;;;;;;32.85;27.80;;;;;;;18.35;100.00;100734.88;10455774;28;20048;-76
2022/09/08 10:29:21;;;;;;;30.70;23.20;;;;;;;17.79;100.00;100671.88;10454178;28;20045;-77
2022/09/08 10:34:40;;;;;;;28.13;24.45;;;;;;;18.19;100.00;100736.31;10413427;28;20104;-78
2022/09/08 10:39:43;;;;;;;32.20;26.23;;;;;;;18.17;100.00;100751.69;10397772;28;20041;-76
2022/09/08 10:44:50;;;;;;;32.33;26.92;;;;;;;18.11;100.00;100754.56;10388928;28;20057;-75
2022/09/08 10:50:09;;;;;;;;;;;;;;;18.04;100.00;100753.31;10372681;28;20101;-74
2022/09/08 10:55:38;;;;;;;33.17;26.60;;;;;;;18.02;100.00;100761.16;10371916;28;20052;-75
2022/09/08 11:01:20;;;;;;;29.77;23.38;;;;;;;17.91;100.00;100772.50;10382510;28;20105;-73
2022/09/08 11:06:35;;;;;;;29.40;23.20;;;;;;;17.88;100.00;100778.69;10440355;28;20068;-74
2022/09/08 11:11:54;;;;;;;35.13;25.75;;;;;;;17.86;100.00;100780.94;10437049;28;20097;-74
2022/09/08 11:17:18;;;;;;;27.90;21.65;;;;;;;17.76;100.00;100781.09;10439291;28;20052;-74
2022/09/08 11:22:40;;;;;;;26.35;19.08;;;;;;;17.78;100.00;100784.41;10421424;28;20057;-74
2022/09/08 11:27:56;;;;;;;21.42;14.98;;;;;;;17.64;100.00;100775.19;10438315;28;20075;-73
2022/09/08 11:33:09;;;;;;;16.70;11.80;;;;;;;17.51;100.00;100774.00;10407256;28;20468;-74
2022/09/08 11:38:38;;;;;;;12.75;10.63;;;;;;;17.47;100.00;100790.47;10438820;28;20040;-74
2022/09/08 11:43:53;;;;;;;10.07;9.05;;;;;;;17.38;100.00;100772.78;10388232;28;20041;-73
2022/09/08 11:49:22;;;;;;;8.93;6.88;;;;;;;17.34;100.00;100782.88;10387592;28;20048;-73
2022/09/08 11:54:46;;;;;;;8.13;6.65;;;;;;;17.20;100.00;100777.28;10403435;28;20060;-74
2022/09/08 12:00:11;;;;;;;7.90;6.75;;;;;;;17.20;100.00;100779.19;10420777;28;20045;-73
2022/09/08 12:05:33;;;;;;;12.23;8.23;;;;;;;17.22;100.00;100782.50;10418537;28;20045;-74
2022/09/08 12:10:54;;;;;;;11.60;8.32;;;;;;;17.10;100.00;100763.50;10442165;28;20033;-74
2022/09/08 12:16:20;;;;;;;9.90;7.20;;;;;;;16.94;100.00;100754.56;10423468;28;20061;-74
2022/09/08 12:21:23;;;;;;;8.85;7.43;;;;;;;17.05;100.00;100771.91;10386643;28;20129;-72
2022/09/08 12:26:36;;;;;;;10.25;5.20;;;;;;;16.92;100.00;100768.75;10415754;28;20037;-73
2022/09/08 12:31:42;;;;;;;4.20;2.92;;;;;;;16.73;100.00;100765.09;10418555;28;20057;-74
2022/09/08 12:36:46;;;;;;;;;;;;;;;16.78;100.00;100766.97;10384898;28;20045;-74
2022/09/08 12:42:16;;;;;;;4.30;2.45;;;;;;;16.65;100.00;100763.00;10383919;28;20011;-75
2022/09/08 12:47:39;;;;;;;5.50;3.45;;;;;;;16.66;100.00;100761.84;10385161;28;20029;-74
2022/09/08 12:53:03;;;;;;;5.30;3.42;;;;;;;16.71;100.00;100778.47;10385416;28;20041;-73
2022/09/08 12:58:04;;;;;;;6.05;3.70;;;;;;;16.71;100.00;100761.81;10415567;28;20509;-75
2022/09/08 13:03:36;;;;;;;8.75;4.13;;;;;;;16.88;100.00;100761.31;10366763;28;20034;-74
2022/09/08 13:08:48;;;;;;;4.68;4.20;;;;;;;16.99;100.00;100753.66;10417093;28;20041;-71
2022/09/08 13:13:49;;;;;;;7.95;5.13;;;;;;;17.14;100.00;100759.00;10409783;28;20096;-72
2022/09/08 13:19:05;;;;;;;8.52;4.53;;;;;;;17.22;100.00;100749.13;10354338;28;20515;-71
2022/09/08 13:24:21;;;;;;;7.13;4.10;;;;;;;17.43;100.00;100758.81;10455138;28;20059;-72
2022/09/08 13:30:03;;;;;;;5.40;2.95;;;;;;;17.42;100.00;100748.81;10456535;28;20041;-72
2022/09/08 13:35:25;;;;;;;3.45;2.80;;;;;;;17.32;100.00;100747.03;10410275;28;20049;-72
2022/09/08 13:40:34;;;;;;;4.40;3.13;;;;;;;17.41;100.00;100744.38;10423920;28;20128;-74
2022/09/08 13:45:47;;;;;;;5.35;3.42;;;;;;;17.45;100.00;100730.69;10434826;28;20386;-73
2022/09/08 13:50:54;;;;;;;4.10;2.35;;;;;;;17.45;100.00;100745.44;10416768;28;20418;-74
2022/09/08 13:56:18;;;;;;;5.40;3.53;;;;;;;17.41;100.00;100729.66;10402653;28;20045;-73
2022/09/08 14:01:27;;;;;;;5.85;3.22;;;;;;;17.50;100.00;100728.63;10449925;28;20412;-74
2022/09/08 14:06:43;;;;;;;8.02;2.67;;;;;;;17.67;100.00;100724.44;10430034;28;20037;-73
2022/09/08 14:11:43;;;;;;;8.50;2.90;;;;;;;17.85;100.00;100740.28;10410812;28;20572;-74
2022/09/08 14:16:44;;;;;;;4.47;2.63;;;;;;;17.97;100.00;100739.00;10414435;28;20092;-74
2022/09/08 14:21:55;;;;;;;5.03;3.15;;;;;;;17.98;100.00;100721.94;10357301;28;20029;-75
2022/09/08 14:26:56;;;;;;;6.78;3.22;;;;;;;18.01;100.00;100720.53;10398696;28;20304;-74
2022/09/08 14:32:15;;;;;;;6.45;3.53;;;;;;;18.25;100.00;100732.31;10436401;28;20041;-75
2022/09/08 14:37:15;;;;;;;7.38;3.97;;;;;;;18.38;100.00;100724.25;10437771;28;20065;-73
2022/09/08 14:42:21;;;;;;;4.75;3.95;;;;;;;18.60;100.00;100727.09;10361722;28;20025;-76
2022/09/08 14:47:30;;;;;;;6.20;4.57;;;;;;;18.69;100.00;100718.84;10365994;28;20046;-76
2022/09/08 14:52:42;;;;;;;8.50;4.68;;;;;;;18.73;100.00;100715.09;10400050;28;20047;-76
2022/09/08 14:57:47;;;;;;;7.20;5.28;;;;;;;18.61;100.00;100712.03;10394966;28;20049;-77
2022/09/08 15:02:53;;;;;;;7.68;6.28;;;;;;;18.61;100.00;100731.53;10394746;28;20076;-77
2022/09/08 15:08:11;;;;;;;11.48;6.70;;;;;;;18.48;100.00;100708.13;10394621;28;20045;-78
2022/09/08 15:13:17;;;;;;;8.55;7.30;;;;;;;18.55;100.00;100727.22;10396988;28;20047;-77
2022/09/08 15:18:17;;;;;;;11.23;6.00;;;;;;;18.45;100.00;100731.03;10419625;28;20052;-78
2022/09/08 15:23:47;;;;;;;10.70;7.25;;;;;;;18.31;100.00;100735.78;10435873;28;20220;-77
2022/09/08 15:29:00;;;;;;;9.27;7.03;;;;;;;18.19;100.00;100736.31;10393950;28;20097;-79
2022/09/08 15:34:10;;;;;;;11.13;8.35;;;;;;;17.99;100.00;100733.94;10449808;28;20045;-77
2022/09/08 15:39:21;;;;;;;11.25;8.73;;;;;;;17.95;100.00;100742.88;10435690;28;20037;-77
2022/09/08 15:44:43;;;;;;;13.43;8.50;;;;;;;18.02;100.00;100730.53;10403475;28;20088;-77
2022/09/08 15:49:57;;;;;;;11.38;9.10;;;;;;;18.12;100.00;100717.22;10436288;28;20041;-77
2022/09/08 15:55:17;;;;;;;12.20;8.80;;;;;;;18.21;100.00;100730.41;10430107;28;20053;-77
2022/09/08 16:00:23;;;;;;;11.00;9.18;;;;;;;18.40;100.00;100736.72;10416315;28;20038;-77
2022/09/08 16:05:45;;;;;;;10.85;8.98;;;;;;;18.68;100.00;100739.47;10398973;28;20060;-77
2022/09/08 16:10:59;;;;;;;10.02;8.50;;;;;;;18.81;100.00;100726.66;10419164;28;20045;-77
2022/09/08 16:15:59;;;;;;;12.38;8.13;;;;;;;19.08;100.00;100737.78;10426027;28;20041;-77
2022/09/08 16:21:10;;;;;;;10.15;8.65;;;;;;;19.20;100.00;100733.59;10403842;28;20044;-77
2022/09/08 16:26:29;;;;;;;12.68;9.70;;;;;;;19.12;100.00;100738.78;10435109;28;20086;-77
2022/09/08 16:31:42;;;;;;;12.60;10.10;;;;;;;18.84;100.00;100720.47;10387919;28;20099;-77
2022/09/08 16:36:43;;;;;;;16.10;10.65;;;;;;;18.62;100.00;100724.81;10438280;28;20045;-77
2022/09/08 16:41:52;;;;;;;15.43;11.50;;;;;;;18.35;100.00;100746.03;10408869;28;20517;-78
2022/09/08 16:47:07;;;;;;;18.65;10.77;;;;;;;18.09;100.00;100740.13;10425212;28;20045;-77
2022/09/08 16:52:47;;;;;;;13.57;11.35;;;;;;;17.89;100.00;100744.13;10419503;28;20041;-78
2022/09/08 16:58:23;;;;;;;17.63;12.38;;;;;;;17.73;100.00;100743.53;10354378;28;20203;-78
2022/09/08 17:03:27;;;;;;;18.10;12.43;;;;;;;17.49;100.00;100734.53;10430498;28;20358;-77
2022/09/08 17:08:27;;;;;;;20.08;14.32;;;;;;;17.49;100.00;100738.13;10447133;28;20038;-76
2022/09/08 17:13:31;;;;;;;20.40;15.52;;;;;;;17.30;100.00;100712.28;10441287;28;20132;-77
2022/09/08 17:18:46;;;;;;;18.58;13.70;;;;;;;17.15;100.00;100708.59;10419772;28;20383;-76
2022/09/08 17:23:55;;;;;;;20.27;12.98;;;;;;;17.18;100.00;100723.03;10431595;28;20053;-76
2022/09/08 17:29:32;;;;;;;18.80;13.23;;;;;;;17.06;100.00;100720.75;10407418;28;20338;-77
2022/09/08 17:34:37;;;;;;;11.68;8.77;;;;;;;16.76;100.00;100686.66;10440601;28;20033;-76
2022/09/08 17:39:50;;;;;;;12.38;9.25;;;;;;;16.80;100.00;100720.25;10394555;28;20500;-77
2022/09/08 17:45:00;;;;;;;11.10;7.70;;;;;;;16.67;100.00;100728.19;10409081;28;20045;-77
2022/09/08 17:50:26;;;;;;;12.07;8.93;;;;;;;16.54;100.00;100718.66;10413757;28;20048;-76
2022/09/08 17:55:47;;;;;;;12.10;7.45;;;;;;;16.48;100.00;100719.84;10435355;28;20041;-77
2022/09/08 18:01:10;;;;;;;10.25;7.63;;;;;;;16.45;100.00;100723.22;10355557;28;20050;-76
2022/09/08 18:06:25;;;;;;;10.57;7.43;;;;;;;16.34;100.00;100724.47;10403196;28;20101;-77
2022/09/08 18:12:08;;;;;;;10.50;6.95;;;;;;;16.25;100.00;100727.09;10410776;28;20056;-73
2022/09/08 18:17:17;;;;;;;10.45;7.90;;;;;;;16.10;100.00;100711.44;10348770;28;20048;-77
2022/09/08 18:22:23;;;;;;;10.27;7.55;;;;;;;15.85;100.00;100706.97;10384761;28;20063;-77
2022/09/08 18:27:51;;;;;;;12.13;7.82;;;;;;;15.92;100.00;100732.44;10402612;28;20041;-77
2022/09/08 18:33:14;;;;;;;9.98;7.85;;;;;;;15.83;100.00;100747.25;10392685;28;20029;-76
2022/09/08 18:38:30;;;;;;;9.13;7.50;;;;;;;15.61;100.00;100733.84;10409966;28;20066;-77
2022/09/08 18:43:47;;;;;;;11.13;7.80;;;;;;;15.61;100.00;100728.28;10405750;28;20029;-77
2022/09/08 18:49:11;;;;;;;;;;;;;;;15.43;100.00;100733.44;10371323;28;20041;-77
2022/09/08 18:54:18;;;;;;;14.45;9.85;;;;;;;15.25;100.00;100732.19;10404444;28;20353;-77
2022/09/08 18:59:37;;;;;;;15.35;10.15;;;;;;;15.09;100.00;100739.81;10420215;28;20447;-78
2022/09/08 19:05:05;;;;;;;17.98;11.77;;;;;;;14.96;100.00;100745.97;10420039;28;20037;-76
2022/09/08 19:10:44;;;;;;;18.70;11.15;;;;;;;14.84;100.00;100749.13;10381826;28;20036;-76
2022/09/08 19:16:03;;;;;;;18.90;11.48;;;;;;;14.72;100.00;100766.06;10399516;28;20042;-75
2022/09/08 19:21:05;;;;;;;21.35;13.65;;;;;;;14.61;100.00;100775.53;10394388;28;20420;-76
2022/09/08 19:26:12;;;;;;;23.70;15.23;;;;;;;14.65;100.00;100784.94;10392043;28;20413;-76
2022/09/08 19:31:34;;;;;;;22.30;15.55;;;;;;;14.73;100.00;100791.84;10394515;28;20054;-77
2022/09/08 19:36:44;;;;;;;31.60;17.35;;;;;;;14.71;100.00;100783.81;10424182;28;20056;-75
2022/09/08 19:41:47;;;;;;;32.80;18.88;;;;;;;14.71;100.00;100783.81;10419952;28;20194;-76
2022/09/08 19:46:56;;;;;;;33.92;19.92;;;;;;;14.71;100.00;100782.97;10438909;28;20044;-76
2022/09/08 19:51:57;;;;;;;33.28;19.13;;;;;;;14.72;100.00;100773.56;10422105;28;20037;-77
2022/09/08 19:57:01;;;;;;;32.97;19.73;;;;;;;14.29;100.00;100704.75;10423509;28;20064;-77
2022/09/08 20:02:13;;;;;;;37.83;19.83;;;;;;;14.60;100.00;100771.13;10408889;28;20056;-77
2022/09/08 20:07:48;;;;;;;37.03;21.95;;;;;;;14.56;100.00;100775.56;10406332;28;20044;-77
2022/09/08 20:13:00;;;;;;;36.45;21.00;;;;;;;14.51;100.00;100770.00;10433899;28;20130;-77
2022/09/08 20:18:05;;;;;;;44.20;22.80;;;;;;;14.44;100.00;100764.78;10438529;28;20080;-78
2022/09/08 20:23:27;;;;;;;38.53;21.88;;;;;;;14.41;100.00;100765.34;10362390;28;20493;-77
2022/09/08 20:28:49;;;;;;;42.65;22.52;;;;;;;14.38;100.00;100757.59;10401829;28;20041;-77
2022/09/08 20:34:11;;;;;;;41.92;24.02;;;;;;;14.33;100.00;100755.69;10420141;28;20746;-77
2022/09/08 20:39:42;;;;;;;44.38;25.35;;;;;;;13.39;100.00;100652.97;10431926;28;20083;-76
2022/09/08 20:45:02;;;;;;;51.33;26.17;;;;;;;14.14;100.00;100746.34;10419116;28;20080;-77
2022/09/08 20:50:10;;;;;;;47.53;26.13;;;;;;;14.22;100.00;100762.38;10436558;28;20072;-77
2022/09/08 20:55:18;;;;;;;49.60;26.10;;;;;;;14.28;100.00;100766.78;10438792;28;20040;-77
2022/09/08 21:00:26;;;;;;;48.20;26.60;;;;;;;14.25;100.00;100761.78;10434868;28;20051;-77
2022/09/08 21:05:27;;;;;;;45.17;24.90;;;;;;;14.36;100.00;100770.91;10435414;28;20033;-77
2022/09/08 21:10:36;;;;;;;50.60;24.63;;;;;;;14.42;100.00;100763.41;10437101;28;20061;-77
2022/09/08 21:15:57;;;;;;;36.42;22.30;;;;;;;14.56;100.00;100777.53;10419801;28;20041;-76
2022/09/08 21:21:19;;;;;;;34.20;20.38;;;;;;;14.61;100.00;100771.94;10417706;28;20048;-77
2022/09/08 21:26:33;;;;;;;39.17;20.50;;;;;;;14.58;100.00;100770.56;10392949;28;20045;-77
2022/09/08 21:31:52;;;;;;;31.10;19.38;;;;;;;14.51;100.00;100768.09;10362960;28;20041;-76
2022/09/08 21:37:01;;;;;;;25.58;16.40;;;;;;;14.58;100.00;100778.06;10414487;28;20101;-76
2022/09/08 21:42:02;;;;;;;27.00;16.40;;;;;;;14.54;100.00;100773.03;10436850;28;20421;-77
2022/09/08 21:47:16;;;;;;;28.92;16.80;;;;;;;14.48;100.00;100767.81;10420640;28;20109;-77
2022/09/08 21:52:26;;;;;;;25.55;16.77;;;;;;;14.37;100.00;100755.13;10386328;28;20098;-78
2022/09/08 21:57:26;;;;;;;27.42;15.75;;;;;;;14.37;100.00;100771.75;10388775;28;20041;-77
2022/09/08 22:02:48;;;;;;;20.80;14.05;;;;;;;14.39;100.00;100775.06;10428726;28;20417;-77
2022/09/08 22:07:49;;;;;;;22.45;14.60;;;;;;;14.37;100.00;100777.28;10426432;28;20048;-75
2022/09/08 22:13:12;;;;;;;22.65;14.32;;;;;;;14.31;100.00;100770.94;10391464;28;20033;-77
2022/09/08 22:18:16;;;;;;;22.45;14.57;;;;;;;14.25;100.00;100764.56;10435440;28;20037;-77
2022/09/08 22:23:29;;;;;;;22.88;14.73;;;;;;;14.17;100.00;100767.91;10359680;28;20056;-76
2022/09/08 22:28:50;;;;;;;25.13;14.43;;;;;;;14.02;100.00;100766.00;10372231;28;20034;-77
2022/09/08 22:34:12;;;;;;;25.95;14.82;;;;;;;13.89;100.00;100770.19;10409797;28;20053;-76
2022/09/08 22:39:24;;;;;;;22.65;14.02;;;;;;;13.77;100.00;100774.38;10378829;28;20044;-76
2022/09/08 22:44:26;;;;;;;26.73;14.38;;;;;;;13.63;100.00;100757.50;10418684;28;20092;-76
2022/09/08 22:49:42;;;;;;;26.67;15.48;;;;;;;13.57;100.00;100764.97;10413682;28;20071;-77
2022/09/08 22:55:04;;;;;;;23.90;14.38;;;;;;;13.46;100.00;100769.66;10430967;22;20175;-84
2022/09/08 23:00:21;;;;;;;25.83;15.35;;;;;;;12.16;100.00;100563.66;10448629;28;20037;-88
2022/09/08 23:05:52;;;;;;;28.55;15.77;;;;;;;11.66;100.00;100499.78;10405394;28;20066;-86
2022/09/08 23:11:07;;;;;;;28.10;16.70;;;;;;;12.10;100.00;100565.56;10411705;28;20033;-86
2022/09/08 23:16:19;;;;;;;28.00;17.60;;;;;;;13.66;100.00;100768.00;10422475;28;20044;-86